createdAt,value
2023-03-05T00:00:16.856Z,992.50
2023-03-05T00:01:16.836Z,992.47
2023-03-05T00:02:16.850Z,992.49
2023-03-05T00:03:16.874Z,992.47
2023-03-05T00:04:16.802Z,992.52
2023-03-05T00:05:16.804Z,992.48
2023-03-05T00:06:16.762Z,992.45
2023-03-05T00:07:16.953Z,992.42
2023-03-05T00:08:16.766Z,992.49
2023-03-05T00:09:16.728Z,992.45
2023-03-05T00:10:16.733Z,992.47
2023-03-05T00:11:16.750Z,992.44
2023-03-05T00:12:16.699Z,992.42
2023-03-05T00:13:16.688Z,992.47
2023-03-05T00:14:16.691Z,992.49
2023-03-05T00:15:16.674Z,992.47
2023-03-05T00:16:16.633Z,992.44
2023-03-05T00:17:16.628Z,992.43
2023-03-05T00:18:16.607Z,992.46
2023-03-05T00:19:16.607Z,992.48
2023-03-05T00:20:16.584Z,992.42
2023-03-05T00:21:16.559Z,992.43
2023-03-05T00:22:16.742Z,992.43
2023-03-05T00:23:16.526Z,992.41
2023-03-05T00:24:16.530Z,992.42
2023-03-05T00:25:16.523Z,992.47
2023-03-05T00:26:16.507Z,992.47
2023-03-05T00:27:16.505Z,992.43
2023-03-05T00:28:16.456Z,992.45
2023-03-05T00:29:16.468Z,992.45
2023-03-05T00:30:16.451Z,992.44
2023-03-05T00:31:16.509Z,992.42
2023-03-05T00:32:16.500Z,992.46
2023-03-05T00:33:16.387Z,992.42
2023-03-05T00:34:16.371Z,992.39
2023-03-05T00:35:16.368Z,992.43
2023-03-05T00:36:16.356Z,992.43
2023-03-05T00:37:16.340Z,992.39
2023-03-05T00:38:16.325Z,992.41
2023-03-05T00:39:16.343Z,992.35
2023-03-05T00:40:16.376Z,992.32
2023-03-05T00:41:16.279Z,992.31
2023-03-05T00:42:16.279Z,992.33
2023-03-05T00:43:16.289Z,992.31
2023-03-05T00:44:16.241Z,992.30
2023-03-05T00:45:16.220Z,992.27
2023-03-05T00:46:16.323Z,992.28
2023-03-05T00:47:16.196Z,992.26
2023-03-05T00:48:16.187Z,992.17
2023-03-05T00:49:16.158Z,992.21
2023-03-05T00:50:16.352Z,992.20
2023-03-05T00:51:16.130Z,992.12
2023-03-05T00:52:16.140Z,992.23
2023-03-05T00:53:16.109Z,992.15
2023-03-05T00:54:16.124Z,992.21
2023-03-05T00:55:16.076Z,992.11
2023-03-05T00:56:16.071Z,992.14
2023-03-05T00:57:16.255Z,992.16
2023-03-05T00:58:16.033Z,992.12
2023-03-05T00:59:16.049Z,992.13
2023-03-05T01:00:16.019Z,992.12
2023-03-05T01:01:16.058Z,992.14
2023-03-05T01:02:15.980Z,992.05
2023-03-05T01:03:15.965Z,992.11
2023-03-05T01:04:15.945Z,992.13
2023-03-05T01:05:16.111Z,992.07
2023-03-05T01:06:15.926Z,992.06
2023-03-05T01:07:15.955Z,992.01
2023-03-05T01:08:15.892Z,992.03
2023-03-05T01:09:15.869Z,992.06
2023-03-05T01:10:15.853Z,991.98
2023-03-05T01:11:15.840Z,992.02
2023-03-05T01:12:15.827Z,992.03
2023-03-05T01:13:15.816Z,992.00
2023-03-05T01:14:15.815Z,992.01
2023-03-05T01:15:15.822Z,991.99
2023-03-05T01:16:15.840Z,992.01
2023-03-05T01:17:15.750Z,992.00
2023-03-05T01:18:15.748Z,991.97
2023-03-05T01:19:15.719Z,991.97
2023-03-05T01:20:15.698Z,991.98
2023-03-05T01:21:15.701Z,991.96
2023-03-05T01:22:15.672Z,992.00
2023-03-05T01:23:15.679Z,991.96
2023-03-05T01:24:15.661Z,991.96
2023-03-05T01:25:15.637Z,991.97
2023-03-05T01:26:15.630Z,991.97
2023-03-05T01:27:15.602Z,991.97
2023-03-05T01:28:15.581Z,992.02
2023-03-05T01:29:15.588Z,991.99
2023-03-05T01:30:15.602Z,991.99
2023-03-05T01:31:15.583Z,991.98
2023-03-05T01:32:15.601Z,991.94
2023-03-05T01:33:15.508Z,991.92
2023-03-05T01:34:15.506Z,991.95
2023-03-05T01:35:15.509Z,991.92
2023-03-05T01:36:15.485Z,991.93
2023-03-05T01:37:15.482Z,991.90
2023-03-05T01:38:15.483Z,991.85
2023-03-05T01:39:15.427Z,991.85
2023-03-05T01:40:15.425Z,991.86
2023-03-05T01:41:15.421Z,991.82
2023-03-05T01:42:15.401Z,991.85
2023-03-05T01:43:15.380Z,991.80
2023-03-05T01:44:15.385Z,991.85
2023-03-05T01:45:15.375Z,991.81
2023-03-05T01:46:15.360Z,991.78
2023-03-05T01:47:15.352Z,991.80
2023-03-05T01:48:15.328Z,991.78
2023-03-05T01:49:15.312Z,991.84
2023-03-05T01:50:15.287Z,991.80
2023-03-05T01:51:15.261Z,991.79
2023-03-05T01:52:15.257Z,991.79
2023-03-05T01:53:15.256Z,991.82
2023-03-05T01:54:15.234Z,991.77
2023-03-05T01:55:15.221Z,991.77
2023-03-05T01:56:15.201Z,991.78
2023-03-05T01:57:15.395Z,991.77
2023-03-05T01:58:15.153Z,991.75
2023-03-05T01:59:15.203Z,991.75
2023-03-05T02:00:15.166Z,991.73
2023-03-05T02:01:15.120Z,991.68
2023-03-05T02:02:15.162Z,991.73
2023-03-05T02:03:15.333Z,991.69
2023-03-05T02:04:15.073Z,991.69
2023-03-05T02:05:15.089Z,991.70
2023-03-05T02:06:15.080Z,991.64
2023-03-05T02:07:15.060Z,991.60
2023-03-05T02:08:15.054Z,991.61
2023-03-05T02:09:15.039Z,991.61
2023-03-05T02:10:15.016Z,991.58
2023-03-05T02:11:14.988Z,991.57
2023-03-05T02:12:14.973Z,991.55
2023-03-05T02:13:14.954Z,991.52
2023-03-05T02:14:14.946Z,991.52
2023-03-05T02:15:14.953Z,991.52
2023-03-05T02:16:14.924Z,991.57
2023-03-05T02:17:14.937Z,991.50
2023-03-05T02:18:14.894Z,991.51
2023-03-05T02:19:14.912Z,991.43
2023-03-05T02:20:14.895Z,991.44
2023-03-05T02:21:14.885Z,991.46
2023-03-05T02:22:14.838Z,991.48
2023-03-05T02:23:15.054Z,991.47
2023-03-05T02:24:14.840Z,991.44
2023-03-05T02:25:14.813Z,991.46
2023-03-05T02:26:14.802Z,991.45
2023-03-05T02:27:14.821Z,991.40
2023-03-05T02:28:14.965Z,991.38
2023-03-05T02:29:14.742Z,991.41
2023-03-05T02:30:14.722Z,991.37
2023-03-05T02:31:14.705Z,991.39
2023-03-05T02:32:14.840Z,991.35
2023-03-05T02:33:14.673Z,991.33
2023-03-05T02:34:14.668Z,991.31
2023-03-05T02:35:14.662Z,991.30
2023-03-05T02:36:14.653Z,991.30
2023-03-05T02:37:14.687Z,991.28
2023-03-05T02:38:14.624Z,991.26
2023-03-05T02:39:14.588Z,991.26
2023-03-05T02:40:14.604Z,991.24
2023-03-05T02:41:14.609Z,991.25
2023-03-05T02:42:14.593Z,991.25
2023-03-05T02:43:14.528Z,991.20
2023-03-05T02:44:14.544Z,991.23
2023-03-05T02:45:14.511Z,991.20
2023-03-05T02:46:14.584Z,991.16
2023-03-05T02:47:14.476Z,991.20
2023-03-05T02:48:14.479Z,991.20
2023-03-05T02:49:14.477Z,991.19
2023-03-05T02:50:14.455Z,991.14
2023-03-05T02:51:14.445Z,991.18
2023-03-05T02:52:14.432Z,991.16
2023-03-05T02:53:14.455Z,991.15
2023-03-05T02:54:14.403Z,991.17
2023-03-05T02:55:14.387Z,991.16
2023-03-05T02:56:14.357Z,991.16
2023-03-05T02:57:14.323Z,991.17
2023-03-05T02:58:14.313Z,991.14
2023-03-05T02:59:14.344Z,991.14
2023-03-05T03:00:14.385Z,991.17
2023-03-05T03:01:14.361Z,991.16
2023-03-05T03:02:14.266Z,991.14
2023-03-05T03:03:14.361Z,991.13
2023-03-05T03:04:14.248Z,991.12
2023-03-05T03:05:14.233Z,991.10
2023-03-05T03:06:14.215Z,991.08
2023-03-05T03:07:14.220Z,991.16
2023-03-05T03:08:14.179Z,991.15
2023-03-05T03:09:14.169Z,991.15
2023-03-05T03:10:14.187Z,991.12
2023-03-05T03:11:14.159Z,991.12
2023-03-05T03:12:14.112Z,991.10
2023-03-05T03:13:14.133Z,991.15
2023-03-05T03:14:14.086Z,991.09
2023-03-05T03:15:14.075Z,991.10
2023-03-05T03:16:14.063Z,991.07
2023-03-05T03:17:14.054Z,991.09
2023-03-05T03:18:14.039Z,991.04
2023-03-05T03:19:14.016Z,991.09
2023-03-05T03:20:14.061Z,991.05
2023-03-05T03:21:13.985Z,991.06
2023-03-05T03:22:13.995Z,991.03
2023-03-05T03:23:13.979Z,991.01
2023-03-05T03:24:13.942Z,991.01
2023-03-05T03:25:13.949Z,991.04
2023-03-05T03:26:13.933Z,990.98
2023-03-05T03:27:13.897Z,990.97
2023-03-05T03:28:13.917Z,990.99
2023-03-05T03:29:13.882Z,991.00
2023-03-05T03:30:13.876Z,990.97
2023-03-05T03:31:13.944Z,990.94
2023-03-05T03:32:13.873Z,990.93
2023-03-05T03:33:13.826Z,990.93
2023-03-05T03:34:13.793Z,990.90
2023-03-05T03:35:13.808Z,990.90
2023-03-05T03:36:13.769Z,990.86
2023-03-05T03:37:13.768Z,990.86
2023-03-05T03:38:13.768Z,990.84
2023-03-05T03:39:13.761Z,990.86
2023-03-05T03:40:13.708Z,990.83
2023-03-05T03:41:13.729Z,990.81
2023-03-05T03:42:13.757Z,990.84
2023-03-05T03:43:13.687Z,990.82
2023-03-05T03:44:13.677Z,990.87
2023-03-05T03:45:13.700Z,990.84
2023-03-05T03:46:13.694Z,990.84
2023-03-05T03:47:13.621Z,990.88
2023-03-05T03:48:13.614Z,990.84
2023-03-05T03:49:13.592Z,990.85
2023-03-05T03:50:13.592Z,990.85
2023-03-05T03:51:13.593Z,990.84
2023-03-05T03:52:13.550Z,990.86
2023-03-05T03:53:13.529Z,990.81
2023-03-05T03:54:13.557Z,990.86
2023-03-05T03:55:13.568Z,990.78
2023-03-05T03:56:13.518Z,990.80
2023-03-05T03:57:13.492Z,990.76
2023-03-05T03:58:13.543Z,990.77
2023-03-05T03:59:13.492Z,990.74
2023-03-05T04:00:13.466Z,990.76
2023-03-05T04:01:13.463Z,990.77
2023-03-05T04:02:13.481Z,990.78
2023-03-05T04:03:13.393Z,990.75
2023-03-05T04:04:13.485Z,990.72
2023-03-05T04:05:13.362Z,990.73
2023-03-05T04:06:13.381Z,990.73
2023-03-05T04:07:13.338Z,990.69
2023-03-05T04:08:13.320Z,990.71
2023-03-05T04:09:13.323Z,990.68
2023-03-05T04:10:13.296Z,990.68
2023-03-05T04:11:13.509Z,990.68
2023-03-05T04:12:13.256Z,990.66
2023-03-05T04:13:13.268Z,990.61
2023-03-05T04:14:13.261Z,990.62
2023-03-05T04:15:13.214Z,990.63
2023-03-05T04:16:13.270Z,990.65
2023-03-05T04:17:13.220Z,990.60
2023-03-05T04:18:13.227Z,990.61
2023-03-05T04:19:13.180Z,990.61
2023-03-05T04:20:13.187Z,990.59
2023-03-05T04:21:13.529Z,990.60
2023-03-05T04:22:13.138Z,990.60
2023-03-05T04:23:13.125Z,990.57
2023-03-05T04:24:13.122Z,990.54
2023-03-05T04:25:13.103Z,990.53
2023-03-05T04:26:13.074Z,990.56
2023-03-05T04:27:13.115Z,990.53
2023-03-05T04:28:13.050Z,990.57
2023-03-05T04:29:13.061Z,990.55
2023-03-05T04:30:13.065Z,990.53
2023-03-05T04:31:13.122Z,990.50
2023-03-05T04:32:13.079Z,990.51
2023-03-05T04:33:12.986Z,990.49
2023-03-05T04:34:13.015Z,990.49
2023-03-05T04:35:12.955Z,990.48
2023-03-05T04:36:12.913Z,990.43
2023-03-05T04:37:12.899Z,990.45
2023-03-05T04:38:12.878Z,990.44
2023-03-05T04:39:12.853Z,990.42
2023-03-05T04:40:12.879Z,990.38
2023-03-05T04:41:12.834Z,990.37
2023-03-05T04:42:12.930Z,990.34
2023-03-05T04:43:12.829Z,990.35
2023-03-05T04:44:12.788Z,990.37
2023-03-05T04:45:12.764Z,990.34
2023-03-05T04:46:12.883Z,990.33
2023-03-05T04:47:12.778Z,990.31
2023-03-05T04:48:12.740Z,990.32
2023-03-05T04:49:12.734Z,990.30
2023-03-05T04:50:12.720Z,990.28
2023-03-05T04:51:12.686Z,990.31
2023-03-05T04:52:12.721Z,990.34
2023-03-05T04:53:12.700Z,990.31
2023-03-05T04:54:12.710Z,990.33
2023-03-05T04:55:12.660Z,990.30
2023-03-05T04:56:12.646Z,990.25
2023-03-05T04:57:12.621Z,990.28
2023-03-05T04:58:12.585Z,990.22
2023-03-05T04:59:12.597Z,990.24
2023-03-05T05:00:12.586Z,990.26
2023-03-05T05:01:12.596Z,990.26
2023-03-05T05:02:12.562Z,990.26
2023-03-05T05:03:12.611Z,990.26
2023-03-05T05:04:12.536Z,990.28
2023-03-05T05:05:12.532Z,990.35
2023-03-05T05:06:12.500Z,990.30
2023-03-05T05:07:12.501Z,990.24
2023-03-05T05:08:12.483Z,990.30
2023-03-05T05:09:12.454Z,990.30
2023-03-05T05:10:12.434Z,990.29
2023-03-05T05:11:12.428Z,990.25
2023-03-05T05:12:12.405Z,990.25
2023-03-05T05:13:12.408Z,990.25
2023-03-05T05:14:12.374Z,990.23
2023-03-05T05:15:12.416Z,990.26
2023-03-05T05:16:12.415Z,990.20
2023-03-05T05:17:12.351Z,990.20
2023-03-05T05:18:12.308Z,990.21
2023-03-05T05:19:12.333Z,990.22
2023-03-05T05:20:12.353Z,990.23
2023-03-05T05:21:12.289Z,990.20
2023-03-05T05:22:12.284Z,990.20
2023-03-05T05:23:12.269Z,990.20
2023-03-05T05:24:12.257Z,990.17
2023-03-05T05:25:12.218Z,990.17
2023-03-05T05:26:12.193Z,990.18
2023-03-05T05:27:12.380Z,990.18
2023-03-05T05:28:12.196Z,990.16
2023-03-05T05:29:12.156Z,990.16
2023-03-05T05:30:12.144Z,990.14
2023-03-05T05:31:12.215Z,990.11
2023-03-05T05:32:12.177Z,990.10
2023-03-05T05:33:12.091Z,990.09
2023-03-05T05:34:12.064Z,990.05
2023-03-05T05:35:12.105Z,990.07
2023-03-05T05:36:12.036Z,990.05
2023-03-05T05:37:12.054Z,990.01
2023-03-05T05:38:12.001Z,990.05
2023-03-05T05:39:11.995Z,990.07
2023-03-05T05:40:11.990Z,990.00
2023-03-05T05:41:11.996Z,990.01
2023-03-05T05:42:11.966Z,990.02
2023-03-05T05:43:11.980Z,989.98
2023-03-05T05:44:11.942Z,990.00
2023-03-05T05:45:12.000Z,989.98
2023-03-05T05:46:12.165Z,989.94
2023-03-05T05:47:11.912Z,989.94
2023-03-05T05:48:11.871Z,989.95
2023-03-05T05:49:11.857Z,989.95
2023-03-05T05:50:11.906Z,989.94
2023-03-05T05:51:11.848Z,989.95
2023-03-05T05:52:11.842Z,989.97
2023-03-05T05:53:11.829Z,989.93
2023-03-05T05:54:11.843Z,989.93
2023-03-05T05:55:11.769Z,989.93
2023-03-05T05:56:11.766Z,989.93
2023-03-05T05:57:11.751Z,989.94
2023-03-05T05:58:11.746Z,989.96
2023-03-05T05:59:11.734Z,989.98
2023-03-05T06:00:11.705Z,989.95
2023-03-05T06:01:11.678Z,989.98
2023-03-05T06:02:11.708Z,990.00
2023-03-05T06:03:11.806Z,989.97
2023-03-05T06:04:11.681Z,989.98
2023-03-05T06:05:11.623Z,989.96
2023-03-05T06:06:11.666Z,989.94
2023-03-05T06:07:11.609Z,989.97
2023-03-05T06:08:11.591Z,989.98
2023-03-05T06:09:11.594Z,990.01
2023-03-05T06:10:11.594Z,989.97
2023-03-05T06:11:11.530Z,989.98
2023-03-05T06:12:11.528Z,989.96
2023-03-05T06:13:11.511Z,989.97
2023-03-05T06:14:11.504Z,989.98
2023-03-05T06:15:11.512Z,989.94
2023-03-05T06:16:11.537Z,989.90
2023-03-05T06:17:14.779Z,989.91
2023-03-05T06:18:11.662Z,989.92
2023-03-05T06:19:11.484Z,989.94
2023-03-05T06:20:11.465Z,989.93
2023-03-05T06:21:11.439Z,989.88
2023-03-05T06:22:11.404Z,989.94
2023-03-05T06:23:11.376Z,989.91
2023-03-05T06:24:11.359Z,989.92
2023-03-05T06:25:11.353Z,989.88
2023-03-05T06:26:11.343Z,989.88
2023-03-05T06:27:11.324Z,989.89
2023-03-05T06:28:11.327Z,989.89
2023-03-05T06:29:11.304Z,989.89
2023-03-05T06:30:11.308Z,989.87
2023-03-05T06:31:11.307Z,989.85
2023-03-05T06:32:11.316Z,989.85
2023-03-05T06:33:11.263Z,989.84
2023-03-05T06:34:11.278Z,989.86
2023-03-05T06:35:11.237Z,989.85
2023-03-05T06:36:11.192Z,989.84
2023-03-05T06:37:11.193Z,989.83
2023-03-05T06:38:11.215Z,989.81
2023-03-05T06:39:11.170Z,989.87
2023-03-05T06:40:11.156Z,989.83
2023-03-05T06:41:11.134Z,989.80
2023-03-05T06:42:11.114Z,989.79
2023-03-05T06:43:11.118Z,989.75
2023-03-05T06:44:11.056Z,989.80
2023-03-05T06:45:11.043Z,989.82
2023-03-05T06:46:11.050Z,989.80
2023-03-05T06:47:11.048Z,989.83
2023-03-05T06:48:11.033Z,989.82
2023-03-05T06:49:11.029Z,989.83
2023-03-05T06:50:10.990Z,989.83
2023-03-05T06:51:11.002Z,989.86
2023-03-05T06:52:10.984Z,989.87
2023-03-05T06:53:10.974Z,989.88
2023-03-05T06:54:10.942Z,989.86
2023-03-05T06:55:10.918Z,989.85
2023-03-05T06:56:10.909Z,989.87
2023-03-05T06:57:10.879Z,989.82
2023-03-05T06:58:10.911Z,989.86
2023-03-05T06:59:10.877Z,989.86
2023-03-05T07:00:10.866Z,989.82
2023-03-05T07:01:10.964Z,989.80
2023-03-05T07:02:10.920Z,989.82
2023-03-05T07:03:10.808Z,989.82
2023-03-05T07:04:10.792Z,989.82
2023-03-05T07:05:10.757Z,989.82
2023-03-05T07:06:10.770Z,989.83
2023-03-05T07:07:10.779Z,989.84
2023-03-05T07:08:10.756Z,989.83
2023-03-05T07:09:10.717Z,989.83
2023-03-05T07:10:10.695Z,989.85
2023-03-05T07:11:10.715Z,989.84
2023-03-05T07:12:10.676Z,989.87
2023-03-05T07:13:10.679Z,989.91
2023-03-05T07:14:10.682Z,989.91
2023-03-05T07:15:10.616Z,989.88
2023-03-05T07:16:10.725Z,989.87
2023-03-05T07:17:10.586Z,989.87
2023-03-05T07:18:10.603Z,989.91
2023-03-05T07:19:10.567Z,989.94
2023-03-05T07:20:10.604Z,989.89
2023-03-05T07:21:10.580Z,989.92
2023-03-05T07:22:10.553Z,989.91
2023-03-05T07:23:10.563Z,989.83
2023-03-05T07:24:10.534Z,989.86
2023-03-05T07:25:10.529Z,989.91
2023-03-05T07:26:10.503Z,989.88
2023-03-05T07:27:10.485Z,989.86
2023-03-05T07:28:10.462Z,989.87
2023-03-05T07:29:10.457Z,989.89
2023-03-05T07:30:10.437Z,989.86
2023-03-05T07:31:10.505Z,989.91
2023-03-05T07:32:10.457Z,989.91
2023-03-05T07:33:10.372Z,989.86
2023-03-05T07:34:10.362Z,989.91
2023-03-05T07:35:10.376Z,989.90
2023-03-05T07:36:10.379Z,989.88
2023-03-05T07:37:10.316Z,989.81
2023-03-05T07:38:10.312Z,989.76
2023-03-05T07:39:10.360Z,989.76
2023-03-05T07:40:10.304Z,989.79
2023-03-05T07:41:10.255Z,989.74
2023-03-05T07:42:10.371Z,989.78
2023-03-05T07:43:10.294Z,989.82
2023-03-05T07:44:10.254Z,989.77
2023-03-05T07:45:10.231Z,989.75
2023-03-05T07:46:10.308Z,989.69
2023-03-05T07:47:10.230Z,989.69
2023-03-05T07:48:10.210Z,989.74
2023-03-05T07:49:10.183Z,989.72
2023-03-05T07:50:10.160Z,989.74
2023-03-05T07:51:10.132Z,989.69
2023-03-05T07:52:10.168Z,989.70
2023-03-05T07:53:10.124Z,989.67
2023-03-05T07:54:10.131Z,989.65
2023-03-05T07:55:10.111Z,989.67
2023-03-05T07:56:10.065Z,989.70
2023-03-05T07:57:10.046Z,989.73
2023-03-05T07:58:10.026Z,989.68
2023-03-05T07:59:10.041Z,989.68
2023-03-05T08:00:09.990Z,989.70
2023-03-05T08:01:12.086Z,989.67
2023-03-05T08:02:10.015Z,989.66
2023-03-05T08:03:09.966Z,989.63
2023-03-05T08:04:09.986Z,989.57
2023-03-05T08:05:09.936Z,989.60
2023-03-05T08:06:09.934Z,989.56
2023-03-05T08:07:09.914Z,989.60
2023-03-05T08:08:09.924Z,989.52
2023-03-05T08:09:09.884Z,989.52
2023-03-05T08:10:09.860Z,989.51
2023-03-05T08:11:09.882Z,989.55
2023-03-05T08:12:09.845Z,989.51
2023-03-05T08:13:09.805Z,989.53
2023-03-05T08:14:09.816Z,989.53
2023-03-05T08:15:09.806Z,989.52
2023-03-05T08:16:09.871Z,989.53
2023-03-05T08:17:09.788Z,989.54
2023-03-05T08:18:09.762Z,989.52
2023-03-05T08:19:09.753Z,989.52
2023-03-05T08:20:09.716Z,989.50
2023-03-05T08:21:09.707Z,989.51
2023-03-05T08:22:09.684Z,989.50
2023-03-05T08:23:09.668Z,989.48
2023-03-05T08:24:09.680Z,989.45
2023-03-05T08:25:09.641Z,989.40
2023-03-05T08:26:09.648Z,989.40
2023-03-05T08:27:09.655Z,989.41
2023-03-05T08:28:09.629Z,989.38
2023-03-05T08:29:09.651Z,989.41
2023-03-05T08:30:09.629Z,989.39
2023-03-05T08:31:09.598Z,989.43
2023-03-05T08:32:09.588Z,989.42
2023-03-05T08:33:09.546Z,989.38
2023-03-05T08:34:09.527Z,989.36
2023-03-05T08:35:09.499Z,989.38
2023-03-05T08:36:09.520Z,989.37
2023-03-05T08:37:09.495Z,989.38
2023-03-05T08:38:09.465Z,989.35
2023-03-05T08:39:09.461Z,989.35
2023-03-05T08:40:09.428Z,989.34
2023-03-05T08:41:09.432Z,989.32
2023-03-05T08:42:09.407Z,989.28
2023-03-05T08:43:09.434Z,989.31
2023-03-05T08:44:09.458Z,989.32
2023-03-05T08:45:09.430Z,989.30
2023-03-05T08:46:09.448Z,989.33
2023-03-05T08:47:09.343Z,989.34
2023-03-05T08:48:09.363Z,989.32
2023-03-05T08:49:09.338Z,989.29
2023-03-05T08:50:09.307Z,989.32
2023-03-05T08:51:09.301Z,989.37
2023-03-05T08:52:09.285Z,989.35
2023-03-05T08:53:09.268Z,989.32
2023-03-05T08:54:09.238Z,989.35
2023-03-05T08:55:09.263Z,989.33
2023-03-05T08:56:11.888Z,989.33
2023-03-05T08:57:09.226Z,989.33
2023-03-05T08:58:09.195Z,989.28
2023-03-05T08:59:09.226Z,989.31
2023-03-05T09:00:09.168Z,989.29
2023-03-05T09:01:09.143Z,989.30
2023-03-05T09:02:09.230Z,989.32
2023-03-05T09:03:09.317Z,989.32
2023-03-05T09:04:09.160Z,989.32
2023-03-05T09:05:09.077Z,989.35
2023-03-05T09:06:09.140Z,989.36
2023-03-05T09:07:09.102Z,989.33
2023-03-05T09:08:09.064Z,989.32
2023-03-05T09:09:09.064Z,989.26
2023-03-05T09:10:09.048Z,989.24
2023-03-05T09:11:09.025Z,989.23
2023-03-05T09:12:11.811Z,989.25
2023-03-05T09:13:09.006Z,989.25
2023-03-05T09:14:08.983Z,989.17
2023-03-05T09:15:09.000Z,989.21
2023-03-05T09:16:09.044Z,989.23
2023-03-05T09:17:08.944Z,989.22
2023-03-05T09:18:08.947Z,989.25
2023-03-05T09:19:08.901Z,989.21
2023-03-05T09:20:08.884Z,989.21
2023-03-05T09:21:08.865Z,989.18
2023-03-05T09:22:08.868Z,989.16
2023-03-05T09:23:08.865Z,989.28
2023-03-05T09:24:08.826Z,989.18
2023-03-05T09:25:08.848Z,989.19
2023-03-05T09:26:08.802Z,989.17
2023-03-05T09:27:08.787Z,989.14
2023-03-05T09:28:08.782Z,989.12
2023-03-05T09:29:08.767Z,989.16
2023-03-05T09:30:08.739Z,989.19
2023-03-05T09:31:08.761Z,989.18
2023-03-05T09:32:08.936Z,989.15
2023-03-05T09:33:08.705Z,989.16
2023-03-05T09:34:08.712Z,989.16
2023-03-05T09:35:08.687Z,989.17
2023-03-05T09:36:08.656Z,989.14
2023-03-05T09:37:08.646Z,989.15
2023-03-05T09:38:08.662Z,989.13
2023-03-05T09:39:08.622Z,989.18
2023-03-05T09:40:08.631Z,989.07
2023-03-05T09:41:08.596Z,989.10
2023-03-05T09:42:10.221Z,989.07
2023-03-05T09:43:08.564Z,989.06
2023-03-05T09:44:08.572Z,989.08
2023-03-05T09:45:08.530Z,989.09
2023-03-05T09:46:08.606Z,989.12
2023-03-05T09:47:08.541Z,989.06
2023-03-05T09:48:08.497Z,989.06
2023-03-05T09:49:08.486Z,989.04
2023-03-05T09:50:08.489Z,989.07
2023-03-05T09:51:08.458Z,988.94
2023-03-05T09:52:08.447Z,989.04
2023-03-05T09:53:08.439Z,989.03
2023-03-05T09:54:08.418Z,989.04
2023-03-05T09:55:08.406Z,988.97
2023-03-05T09:56:08.391Z,989.00
2023-03-05T09:57:08.390Z,988.99
2023-03-05T09:58:08.583Z,988.99
2023-03-05T09:59:08.357Z,988.91
2023-03-05T10:00:08.351Z,988.95
2023-03-05T10:01:08.354Z,988.95
2023-03-05T10:02:08.302Z,988.94
2023-03-05T10:03:08.348Z,988.93
2023-03-05T10:04:08.379Z,988.93
2023-03-05T10:05:08.268Z,988.86
2023-03-05T10:06:08.249Z,988.85
2023-03-05T10:07:08.936Z,988.84
2023-03-05T10:08:08.257Z,988.83
2023-03-05T10:09:08.209Z,988.80
2023-03-05T10:10:08.223Z,988.83
2023-03-05T10:11:08.204Z,988.83
2023-03-05T10:12:08.171Z,988.80
2023-03-05T10:13:08.159Z,988.75
2023-03-05T10:14:08.165Z,988.78
2023-03-05T10:15:08.134Z,988.73
2023-03-05T10:16:08.274Z,988.74
2023-03-05T10:17:08.129Z,988.76
2023-03-05T10:18:08.103Z,988.76
2023-03-05T10:19:08.108Z,988.72
2023-03-05T10:20:08.063Z,988.71
2023-03-05T10:21:08.066Z,988.76
2023-03-05T10:22:08.247Z,988.69
2023-03-05T10:23:08.032Z,988.62
2023-03-05T10:24:08.008Z,988.68
2023-03-05T10:25:08.002Z,988.68
2023-03-05T10:26:07.987Z,988.63
2023-03-05T10:27:08.061Z,988.62
2023-03-05T10:28:08.181Z,988.64
2023-03-05T10:29:07.956Z,988.57
2023-03-05T10:30:07.985Z,988.56
2023-03-05T10:31:07.929Z,988.56
2023-03-05T10:32:08.244Z,988.52
2023-03-05T10:33:07.945Z,988.52
2023-03-05T10:34:07.885Z,988.53
2023-03-05T10:35:07.900Z,988.54
2023-03-05T10:36:07.865Z,988.45
2023-03-05T10:37:07.885Z,988.52
2023-03-05T10:38:07.841Z,988.47
2023-03-05T10:39:07.823Z,988.44
2023-03-05T10:40:07.808Z,988.42
2023-03-05T10:41:07.835Z,988.40
2023-03-05T10:42:07.794Z,988.38
2023-03-05T10:43:07.785Z,988.41
2023-03-05T10:44:07.753Z,988.46
2023-03-05T10:45:07.741Z,988.41
2023-03-05T10:46:07.796Z,988.43
2023-03-05T10:47:07.729Z,988.44
2023-03-05T10:48:07.709Z,988.39
2023-03-05T10:49:07.698Z,988.35
2023-03-05T10:50:07.705Z,988.40
2023-03-05T10:51:07.737Z,988.41
2023-03-05T10:52:07.706Z,988.33
2023-03-05T10:53:07.651Z,988.25
2023-03-05T10:54:07.848Z,988.34
2023-03-05T10:55:07.840Z,988.27
2023-03-05T10:56:07.610Z,988.33
2023-03-05T10:57:07.596Z,988.22
2023-03-05T10:58:07.588Z,988.25
2023-03-05T10:59:07.605Z,988.19
2023-03-05T11:00:07.557Z,988.18
2023-03-05T11:01:07.630Z,988.26
2023-03-05T11:02:07.685Z,988.23
2023-03-05T11:03:07.575Z,988.24
2023-03-05T11:04:07.552Z,988.10
2023-03-05T11:05:07.510Z,988.18
2023-03-05T11:06:07.514Z,988.16
2023-03-05T11:07:07.518Z,988.13
2023-03-05T11:08:07.540Z,988.19
2023-03-05T11:09:07.875Z,988.13
2023-03-05T11:10:07.480Z,988.11
2023-03-05T11:11:07.421Z,988.08
2023-03-05T11:12:07.451Z,988.05
2023-03-05T11:13:07.427Z,988.04
2023-03-05T11:14:07.409Z,988.05
2023-03-05T11:15:07.387Z,988.08
2023-03-05T11:16:07.533Z,988.05
2023-03-05T11:17:07.360Z,987.97
2023-03-05T11:18:07.353Z,987.99
2023-03-05T11:19:07.338Z,987.95
2023-03-05T11:20:07.425Z,987.97
2023-03-05T11:21:07.345Z,987.94
2023-03-05T11:22:07.303Z,987.95
2023-03-05T11:23:07.324Z,987.90
2023-03-05T11:24:07.285Z,987.98
2023-03-05T11:25:07.250Z,987.97
2023-03-05T11:26:07.266Z,987.93
2023-03-05T11:27:07.254Z,987.94
2023-03-05T11:28:07.262Z,987.97
2023-03-05T11:29:07.226Z,987.89
2023-03-05T11:30:07.197Z,987.94
2023-03-05T11:31:07.260Z,987.91
2023-03-05T11:32:07.230Z,987.84
2023-03-05T11:33:09.374Z,987.87
2023-03-05T11:34:07.168Z,987.85
2023-03-05T11:35:07.167Z,987.83
2023-03-05T11:36:07.144Z,987.86
2023-03-05T11:37:07.126Z,987.83
2023-03-05T11:38:07.110Z,987.81
2023-03-05T11:39:07.140Z,987.87
2023-03-05T11:40:07.054Z,987.89
2023-03-05T11:41:07.073Z,987.86
2023-03-05T11:42:07.057Z,987.87
2023-03-05T11:43:07.032Z,987.85
2023-03-05T11:44:07.228Z,987.84
2023-03-05T11:45:07.011Z,987.81
2023-03-05T11:46:07.023Z,987.84
2023-03-05T11:47:06.995Z,987.76
2023-03-05T11:48:07.012Z,987.79
2023-03-05T11:49:06.970Z,987.75
2023-03-05T11:50:06.955Z,987.65
2023-03-05T11:51:06.954Z,987.66
2023-03-05T11:52:06.966Z,987.66
2023-03-05T11:53:06.917Z,987.65
2023-03-05T11:54:06.942Z,987.66
2023-03-05T11:55:07.148Z,987.61
2023-03-05T11:56:07.135Z,987.62
2023-03-05T11:57:06.844Z,987.63
2023-03-05T11:58:06.884Z,987.54
2023-03-05T11:59:06.851Z,987.60
2023-03-05T12:00:06.823Z,987.53
2023-03-05T12:01:06.803Z,987.58
2023-03-05T12:02:06.807Z,987.52
2023-03-05T12:03:06.842Z,987.51
2023-03-05T12:04:06.895Z,987.50
2023-03-05T12:05:06.796Z,987.44
2023-03-05T12:06:06.943Z,987.49
2023-03-05T12:07:06.955Z,987.43
2023-03-05T12:08:06.773Z,987.43
2023-03-05T12:09:06.753Z,987.44
2023-03-05T12:10:06.717Z,987.41
2023-03-05T12:11:06.721Z,987.43
2023-03-05T12:12:06.689Z,987.49
2023-03-05T12:13:06.876Z,987.46
2023-03-05T12:14:06.632Z,987.38
2023-03-05T12:15:06.636Z,987.36
2023-03-05T12:16:06.687Z,987.41
2023-03-05T12:17:06.595Z,987.42
2023-03-05T12:18:06.605Z,987.37
2023-03-05T12:19:06.600Z,987.39
2023-03-05T12:20:06.674Z,987.30
2023-03-05T12:21:06.548Z,987.29
2023-03-05T12:22:06.543Z,987.29
2023-03-05T12:23:06.562Z,987.25
2023-03-05T12:24:06.560Z,987.21
2023-03-05T12:25:06.515Z,987.22
2023-03-05T12:26:06.511Z,987.16
2023-03-05T12:27:06.556Z,987.24
2023-03-05T12:28:06.473Z,987.11